createdAt,value
2018-10-07T00:01:19.887Z,11.02
2018-10-07T00:03:48.500Z,11.06
2018-10-07T00:06:17.184Z,11.01
2018-10-07T00:08:45.801Z,10.98
2018-10-07T00:11:14.668Z,10.96
2018-10-07T00:13:43.413Z,10.92
2018-10-07T00:16:12.056Z,10.88
2018-10-07T00:18:40.672Z,10.90
2018-10-07T00:21:09.416Z,10.82
2018-10-07T00:23:38.186Z,10.81
2018-10-07T00:26:07.475Z,10.74
2018-10-07T00:40:18.748Z,11.01
2018-10-07T00:42:47.433Z,10.88
2018-10-07T00:45:16.101Z,10.78
2018-10-07T00:47:44.813Z,10.71
2018-10-07T00:50:13.514Z,10.66
2018-10-07T00:52:42.256Z,10.56
2018-10-07T00:56:40.005Z,10.45
2018-10-07T00:59:08.845Z,10.27
2018-10-07T01:01:37.502Z,10.33
2018-10-07T01:04:06.163Z,10.28
2018-10-07T01:06:34.877Z,10.22
2018-10-07T01:09:03.903Z,10.18
2018-10-07T01:11:32.539Z,10.17
2018-10-07T01:14:01.187Z,10.14
2018-10-07T01:16:29.884Z,10.20
2018-10-07T01:18:58.600Z,10.16
2018-10-07T01:21:27.393Z,10.13
2018-10-07T01:23:56.155Z,10.11
2018-10-07T01:26:24.801Z,10.08
2018-10-07T01:28:53.517Z,10.11
2018-10-07T01:31:22.157Z,10.06
2018-10-07T01:33:50.812Z,10.08
2018-10-07T01:36:19.719Z,10.01
2018-10-07T01:38:48.386Z,10.03
2018-10-07T01:41:17.097Z,10.01
2018-10-07T01:43:45.821Z,9.94
2018-10-07T01:46:14.498Z,9.87
2018-10-07T01:48:43.172Z,9.84
2018-10-07T01:51:11.807Z,9.85
2018-10-07T01:53:40.621Z,9.80
2018-10-07T01:56:09.241Z,9.79
2018-10-07T01:58:37.879Z,9.63
2018-10-07T02:01:06.692Z,9.60
2018-10-07T02:03:35.379Z,9.60
2018-10-07T02:06:04.036Z,9.59
2018-10-07T02:08:32.708Z,9.55
2018-10-07T02:11:01.412Z,9.45
2018-10-07T02:13:30.134Z,9.37
2018-10-07T02:15:58.783Z,9.31
2018-10-07T02:18:27.423Z,9.34
2018-10-07T02:20:56.047Z,9.32
2018-10-07T02:23:24.691Z,9.25
2018-10-07T02:25:53.370Z,9.21
2018-10-07T02:28:22.052Z,9.27
2018-10-07T02:30:50.689Z,9.25
2018-10-07T02:33:19.929Z,9.28
2018-10-07T02:35:48.587Z,9.33
2018-10-07T02:38:17.250Z,9.37
2018-10-07T02:40:45.912Z,9.32
2018-10-07T02:43:14.576Z,9.25
2018-10-07T02:45:43.253Z,9.27
2018-10-07T02:48:11.919Z,9.27
2018-10-07T02:50:41.603Z,9.20
2018-10-07T02:53:10.350Z,9.18
2018-10-07T02:55:39.133Z,9.12
2018-10-07T02:58:08.341Z,9.12
2018-10-07T03:00:36.997Z,9.17
2018-10-07T03:03:05.666Z,9.18
2018-10-07T03:05:34.372Z,9.20
2018-10-07T03:08:03.029Z,9.14
2018-10-07T03:10:31.709Z,9.15
2018-10-07T03:13:00.357Z,9.06
2018-10-07T03:15:29.020Z,8.96
2018-10-07T03:17:57.700Z,8.87
2018-10-07T03:20:26.405Z,8.87
2018-10-07T03:22:55.093Z,8.93
2018-10-07T03:25:23.808Z,8.95
2018-10-07T03:27:52.530Z,8.90
2018-10-07T03:30:21.324Z,8.96
2018-10-07T03:32:50.027Z,8.95
2018-10-07T03:35:18.725Z,8.92
2018-10-07T03:37:47.434Z,8.89
2018-10-07T03:40:16.112Z,8.88
2018-10-07T03:42:44.777Z,8.90
2018-10-07T03:45:13.433Z,8.81
2018-10-07T03:47:42.096Z,8.80
2018-10-07T03:50:10.719Z,8.78
2018-10-07T03:52:39.391Z,8.80
2018-10-07T03:55:08.034Z,8.77
2018-10-07T03:57:36.687Z,8.80
2018-10-07T04:00:06.887Z,8.81
2018-10-07T04:02:35.597Z,8.72
2018-10-07T04:05:04.343Z,8.71
2018-10-07T04:07:32.986Z,8.64
2018-10-07T04:10:01.657Z,8.61
2018-10-07T04:12:30.356Z,8.56
2018-10-07T04:14:59.019Z,8.61
2018-10-07T04:17:27.680Z,8.57
2018-10-07T04:19:56.343Z,8.61
2018-10-07T04:22:24.997Z,8.54
2018-10-07T04:24:53.696Z,8.57
2018-10-07T04:27:22.356Z,8.52
2018-10-07T04:29:50.980Z,8.49
2018-10-07T04:32:19.664Z,8.55
2018-10-07T04:34:48.353Z,8.49
2018-10-07T04:37:17.048Z,8.37
2018-10-07T04:39:45.786Z,8.37
2018-10-07T04:42:14.390Z,8.36
2018-10-07T04:44:43.056Z,8.33
2018-10-07T04:47:11.671Z,8.32
2018-10-07T04:49:40.309Z,8.33
2018-10-07T04:52:08.979Z,8.39
2018-10-07T04:54:37.644Z,8.41
2018-10-07T04:57:06.280Z,8.38
2018-10-07T04:59:34.934Z,8.36
2018-10-07T05:02:03.620Z,8.34
2018-10-07T05:04:32.312Z,8.39
2018-10-07T05:07:01.093Z,8.32
2018-10-07T05:09:29.826Z,8.22
2018-10-07T05:12:00.009Z,8.18
2018-10-07T05:14:28.797Z,8.12
2018-10-07T05:16:57.597Z,8.15
2018-10-07T05:19:26.342Z,8.21
2018-10-07T05:21:54.991Z,8.25
2018-10-07T05:24:23.693Z,8.33
2018-10-07T05:26:52.404Z,8.41
2018-10-07T05:29:21.090Z,8.49
2018-10-07T05:33:34.906Z,8.54
2018-10-07T05:36:03.513Z,8.59
2018-10-07T05:38:32.185Z,8.64
2018-10-07T05:41:00.863Z,8.69
2018-10-07T05:43:29.537Z,8.78
2018-10-07T05:45:58.400Z,8.81
2018-10-07T05:48:27.184Z,8.85
2018-10-07T05:50:55.898Z,8.90
2018-10-07T05:53:25.034Z,8.95
2018-10-07T05:55:53.743Z,9.05
2018-10-07T06:00:19.080Z,9.18
2018-10-07T06:02:48.275Z,9.23
2018-10-07T06:05:17.647Z,9.26
2018-10-07T06:07:46.422Z,9.36
2018-10-07T06:10:15.233Z,9.33
2018-10-07T06:12:43.953Z,9.41
2018-10-07T06:15:32.601Z,9.41
2018-10-07T06:18:01.404Z,9.44
2018-10-07T06:20:30.769Z,9.57
2018-10-07T06:22:59.692Z,9.63
2018-10-07T06:25:28.681Z,9.71
2018-10-07T06:27:57.791Z,9.71
2018-10-07T06:30:26.604Z,9.78
2018-10-07T06:32:55.241Z,9.89
2018-10-07T06:35:24.918Z,9.84
2018-10-07T06:37:54.400Z,9.95
2018-10-07T06:40:23.315Z,10.07
2018-10-07T06:42:52.180Z,10.19
2018-10-07T06:45:21.013Z,10.28
2018-10-07T06:47:49.657Z,10.34
2018-10-07T06:50:18.300Z,10.43
2018-10-07T06:52:47.004Z,10.52
2018-10-07T06:55:15.687Z,10.58
2018-10-07T06:57:44.373Z,10.69
2018-10-07T07:00:13.155Z,10.71
2018-10-07T07:02:41.934Z,10.72
2018-10-07T07:05:10.664Z,10.72
2018-10-07T07:07:39.352Z,10.85
2018-10-07T07:10:08.136Z,10.93
2018-10-07T07:12:36.812Z,10.95
2018-10-07T07:15:05.929Z,11.00
2018-10-07T07:17:34.685Z,11.10
2018-10-07T07:20:03.557Z,11.18
2018-10-07T07:22:32.207Z,11.21
2018-10-07T07:25:00.915Z,11.31
2018-10-07T07:27:29.558Z,11.47
2018-10-07T07:29:58.314Z,11.50
2018-10-07T07:32:27.098Z,11.54
2018-10-07T07:34:55.801Z,11.68
2018-10-07T07:37:24.628Z,11.75
2018-10-07T07:39:53.296Z,11.88
2018-10-07T07:42:22.003Z,12.10
2018-10-07T07:44:50.685Z,12.25
2018-10-07T07:47:19.444Z,12.27
2018-10-07T07:49:48.091Z,12.30
2018-10-07T07:52:16.859Z,12.26
2018-10-07T07:54:45.514Z,12.16
2018-10-07T07:57:14.224Z,12.18
2018-10-07T07:59:42.952Z,12.30
2018-10-07T08:02:11.617Z,12.47
2018-10-07T08:04:40.264Z,12.61
2018-10-07T08:07:09.000Z,12.77
2018-10-07T08:09:37.643Z,12.95
2018-10-07T08:12:06.378Z,13.05
2018-10-07T08:14:35.038Z,12.99
2018-10-07T08:17:03.859Z,13.11
2018-10-07T08:19:32.520Z,13.15
2018-10-07T08:22:01.431Z,13.29
2018-10-07T08:25:10.957Z,13.50
2018-10-07T08:27:39.856Z,13.56
2018-10-07T08:30:08.686Z,13.62
2018-10-07T08:32:37.395Z,13.62
2018-10-07T08:35:06.326Z,13.73
2018-10-07T08:37:35.250Z,13.87
2018-10-07T08:40:03.998Z,13.99
2018-10-07T08:42:33.073Z,13.66
2018-10-07T08:45:01.739Z,14.04
2018-10-07T08:47:30.411Z,14.14
2018-10-07T08:49:59.111Z,14.28
2018-10-07T08:52:27.928Z,14.42
2018-10-07T08:54:56.568Z,14.57
2018-10-07T08:57:25.275Z,14.66
2018-10-07T08:59:53.941Z,14.71
2018-10-07T09:02:22.572Z,14.93
2018-10-07T09:04:51.257Z,14.94
2018-10-07T09:07:19.925Z,14.96
2018-10-07T09:09:48.612Z,14.99
2018-10-07T09:12:17.332Z,14.97
2018-10-07T09:14:46.104Z,15.13
2018-10-07T09:17:14.743Z,15.06
2018-10-07T09:19:43.408Z,15.24
2018-10-07T09:22:12.076Z,15.42
2018-10-07T09:24:40.740Z,15.46
2018-10-07T09:27:09.494Z,15.82
2018-10-07T09:29:38.201Z,16.07
2018-10-07T09:32:06.959Z,16.20
2018-10-07T09:34:35.653Z,16.24
2018-10-07T09:37:04.346Z,16.59
2018-10-07T09:39:33.020Z,16.94
2018-10-07T09:42:01.604Z,17.54
2018-10-07T09:44:30.265Z,17.91
2018-10-07T09:46:59.135Z,18.56
2018-10-07T09:49:27.893Z,19.47
2018-10-07T09:51:56.605Z,20.13
2018-10-07T09:54:25.428Z,20.57
2018-10-07T09:56:54.088Z,20.85
2018-10-07T09:59:22.790Z,21.36
2018-10-07T10:01:51.586Z,21.71
2018-10-07T10:04:20.411Z,21.87
2018-10-07T10:06:48.932Z,21.21
2018-10-07T10:09:17.604Z,21.31
2018-10-07T10:11:46.277Z,21.49
2018-10-07T10:14:14.987Z,22.13
2018-10-07T10:16:46.676Z,22.34
2018-10-07T10:19:39.269Z,22.61
2018-10-07T10:23:15.581Z,22.66
2018-10-07T10:26:19.029Z,22.65
2018-10-07T10:28:56.278Z,22.73
2018-10-07T10:31:34.825Z,22.77
2018-10-07T10:36:23.452Z,22.83
2018-10-07T10:39:01.833Z,22.80
2018-10-07T10:41:38.703Z,22.62
2018-10-07T10:44:17.045Z,23.29
2018-10-07T10:46:53.767Z,23.83
2018-10-07T10:49:30.164Z,24.06
2018-10-07T10:52:36.485Z,24.37
2018-10-07T10:55:11.783Z,24.43
2018-10-07T10:57:48.952Z,24.67
2018-10-07T11:00:21.948Z,24.24
2018-10-07T11:04:59.125Z,24.58
2018-10-07T11:08:04.060Z,25.29
2018-10-07T11:10:46.668Z,25.53
2018-10-07T11:13:23.076Z,26.04
2018-10-07T11:16:16.399Z,25.54
2018-10-07T11:18:54.576Z,25.67
2018-10-07T11:21:47.041Z,25.79
2018-10-07T11:24:22.493Z,25.77
2018-10-07T11:27:00.007Z,25.72
2018-10-07T11:30:07.393Z,25.74
2018-10-07T11:32:47.059Z,25.53
2018-10-07T11:35:23.935Z,25.93
2018-10-07T11:38:00.922Z,26.29
2018-10-07T11:40:41.366Z,26.14
2018-10-07T11:43:52.051Z,26.66
2018-10-07T11:46:34.580Z,26.85
2018-10-07T11:49:11.650Z,26.71
2018-10-07T11:51:52.545Z,26.78
2018-10-07T11:54:30.386Z,26.93
2018-10-07T11:56:59.074Z,27.21
2018-10-07T11:59:27.914Z,27.20
2018-10-07T12:01:56.681Z,27.56
2018-10-07T12:04:25.629Z,27.97
2018-10-07T12:06:54.519Z,28.32
2018-10-07T12:09:23.344Z,27.38
2018-10-07T12:11:52.149Z,28.01
2018-10-07T12:14:20.935Z,28.39
2018-10-07T12:16:49.759Z,28.51
2018-10-07T12:19:18.707Z,28.49
2018-10-07T12:21:47.580Z,28.79
2018-10-07T12:24:16.471Z,28.77
2018-10-07T12:26:45.306Z,28.93
2018-10-07T12:29:14.257Z,28.43
2018-10-07T12:31:43.154Z,28.30
2018-10-07T12:34:11.828Z,28.41
2018-10-07T12:36:41.013Z,29.07
2018-10-07T12:39:09.905Z,29.10
2018-10-07T12:41:38.714Z,29.04
2018-10-07T12:44:07.732Z,29.19
2018-10-07T12:46:36.580Z,29.33
2018-10-07T12:49:05.477Z,29.75
2018-10-07T12:51:34.288Z,29.64
2018-10-07T12:54:03.104Z,29.22
2018-10-07T12:56:32.057Z,28.85
2018-10-07T12:59:00.870Z,29.35
2018-10-07T13:01:29.691Z,29.49
2018-10-07T13:03:58.468Z,29.07
2018-10-07T13:06:27.277Z,29.52
2018-10-07T13:08:56.124Z,29.61
2018-10-07T13:11:24.936Z,29.83
2018-10-07T13:13:53.752Z,29.48
2018-10-07T13:16:22.625Z,29.77
2018-10-07T13:18:51.436Z,30.03
2018-10-07T13:21:23.711Z,29.53
2018-10-07T13:23:52.512Z,29.83
2018-10-07T13:26:21.406Z,29.73
2018-10-07T13:28:50.175Z,30.17
2018-10-07T13:31:19.041Z,29.84
2018-10-07T13:33:47.807Z,29.67
2018-10-07T13:36:16.647Z,30.06
2018-10-07T13:38:45.534Z,30.08
2018-10-07T13:41:14.378Z,30.21
2018-10-07T13:43:43.323Z,29.88
2018-10-07T13:46:12.057Z,29.74
2018-10-07T13:48:41.649Z,29.54
2018-10-07T13:51:10.439Z,29.68
2018-10-07T13:53:39.473Z,29.22
2018-10-07T13:56:08.265Z,29.29
2018-10-07T13:58:37.028Z,29.78
2018-10-07T14:01:05.852Z,29.96
2018-10-07T14:03:34.718Z,29.99
2018-10-07T14:06:03.517Z,29.84
2018-10-07T14:08:32.372Z,29.97
2018-10-07T14:11:01.199Z,30.28
2018-10-07T14:13:30.074Z,30.10
2018-10-07T14:15:58.937Z,30.44
2018-10-07T14:18:27.731Z,30.18
2018-10-07T14:20:56.553Z,29.99
2018-10-07T14:23:25.341Z,30.12
2018-10-07T14:25:54.352Z,29.83
2018-10-07T14:28:25.919Z,29.57
2018-10-07T14:30:54.897Z,29.52
2018-10-07T14:33:23.811Z,29.45
2018-10-07T14:35:52.725Z,29.11
2018-10-07T14:38:21.516Z,29.03
2018-10-07T14:40:50.311Z,29.12
2018-10-07T14:43:19.033Z,28.96
2018-10-07T14:45:47.867Z,28.79
2018-10-07T14:48:16.747Z,28.78
2018-10-07T14:50:45.500Z,28.95
2018-10-07T14:53:14.298Z,28.69
2018-10-07T14:55:43.214Z,28.64
2018-10-07T14:58:11.966Z,28.55
2018-10-07T15:00:40.788Z,28.34
2018-10-07T15:03:09.515Z,28.19
2018-10-07T15:05:38.246Z,28.13
2018-10-07T15:08:07.096Z,27.88
2018-10-07T15:10:35.848Z,27.54
2018-10-07T15:13:04.601Z,27.34
2018-10-07T15:15:33.445Z,27.02
2018-10-07T15:18:02.277Z,26.68
2018-10-07T15:20:31.249Z,26.25
2018-10-07T15:23:00.313Z,25.61
2018-10-07T15:25:29.212Z,25.82
2018-10-07T15:27:58.112Z,25.87
2018-10-07T15:30:26.888Z,25.69
2018-10-07T15:32:55.761Z,25.56
2018-10-07T15:35:24.564Z,25.50
2018-10-07T15:37:53.279Z,25.49
2018-10-07T15:40:22.262Z,25.29
2018-10-07T15:42:51.239Z,24.89
2018-10-07T15:45:20.183Z,24.07
2018-10-07T15:47:49.134Z,23.64
2018-10-07T15:50:18.056Z,23.41
2018-10-07T15:52:46.940Z,23.24
2018-10-07T15:55:15.710Z,22.82
2018-10-07T15:57:44.714Z,22.55
2018-10-07T16:00:16.471Z,22.44
2018-10-07T16:02:45.254Z,22.18
2018-10-07T16:05:14.164Z,21.93
2018-10-07T16:07:43.041Z,21.82
2018-10-07T16:10:11.899Z,21.73
2018-10-07T16:12:40.613Z,21.59
2018-10-07T16:15:09.406Z,21.47
2018-10-07T16:17:38.193Z,21.19
2018-10-07T16:20:07.081Z,21.07
2018-10-07T16:22:36.273Z,20.90
2018-10-07T16:25:05.167Z,20.79
2018-10-07T16:27:34.032Z,20.70
2018-10-07T16:30:04.464Z,20.44
2018-10-07T16:32:33.337Z,20.42
2018-10-07T16:35:02.196Z,20.34
2018-10-07T16:37:30.920Z,20.17
2018-10-07T16:39:59.736Z,20.06
2018-10-07T16:42:28.581Z,19.72
2018-10-07T16:44:57.504Z,19.65
2018-10-07T16:47:26.349Z,19.49
2018-10-07T16:49:55.171Z,19.39
2018-10-07T16:52:24.232Z,19.26
2018-10-07T16:54:53.016Z,19.10
2018-10-07T16:57:21.864Z,18.93
2018-10-07T16:59:50.656Z,18.94
2018-10-07T17:02:19.435Z,19.04
2018-10-07T17:04:48.345Z,18.99
2018-10-07T17:07:17.304Z,18.85
2018-10-07T17:09:46.056Z,18.86
2018-10-07T17:12:14.889Z,18.70
2018-10-07T17:14:43.789Z,18.54
2018-10-07T17:17:12.536Z,18.43
2018-10-07T17:19:41.461Z,18.44
2018-10-07T17:22:10.442Z,18.30
2018-10-07T17:24:39.240Z,18.21
2018-10-07T17:27:09.061Z,18.21
2018-10-07T17:29:37.904Z,18.04
2018-10-07T17:32:06.756Z,17.97
2018-10-07T17:34:35.584Z,17.90
2018-10-07T17:37:04.431Z,17.76
2018-10-07T17:39:33.293Z,17.75
2018-10-07T17:42:02.261Z,17.62
2018-10-07T17:44:31.030Z,17.53
2018-10-07T17:46:59.880Z,17.48
2018-10-07T17:49:28.777Z,17.48
2018-10-07T17:51:57.524Z,17.37
2018-10-07T17:54:26.385Z,17.24
2018-10-07T17:56:55.297Z,17.15
2018-10-07T17:59:24.056Z,17.08
2018-10-07T18:01:53.031Z,16.97
2018-10-07T18:04:21.850Z,16.93
2018-10-07T18:06:50.712Z,16.84
2018-10-07T18:09:19.481Z,16.79
2018-10-07T18:11:48.539Z,16.69
2018-10-07T18:14:17.376Z,16.58
2018-10-07T18:16:46.270Z,16.55
2018-10-07T18:19:15.172Z,16.49
2018-10-07T18:21:44.111Z,16.39
2018-10-07T18:24:12.940Z,16.36
2018-10-07T18:26:41.810Z,16.19
2018-10-07T18:29:10.964Z,16.11
2018-10-07T18:31:39.774Z,16.02
2018-10-07T18:34:08.763Z,15.97
2018-10-07T18:36:37.597Z,15.96
2018-10-07T18:39:08.495Z,15.93
2018-10-07T18:41:38.238Z,15.85
2018-10-07T18:44:07.171Z,15.81
2018-10-07T18:46:36.000Z,15.73
2018-10-07T18:49:05.067Z,15.63
2018-10-07T18:51:34.018Z,15.63
2018-10-07T18:54:02.860Z,15.56
2018-10-07T18:56:31.867Z,15.50
2018-10-07T18:59:00.714Z,15.44
2018-10-07T19:01:29.543Z,15.38
2018-10-07T19:03:58.344Z,15.27
2018-10-07T19:06:27.261Z,15.23
